Aviation Digital Data Service (ADDS)

Output produced by METARs form (0105 UTC 31 May 2020)
found at http://aviationweather.gov/metar/data/
 
TAF EHAM 302258Z 3100/0106 06008KT CAVOK 
     BECMG 3106/3109 08014KT 
     BECMG 3119/3122 06008KT